UOOO 272000Z 02005MPS 9999 FEW005 M04/M08 Q1022 R01/CLRD60 NOSIG RMK QFE752/1002
QNH:(hPa/inHg/mmHg)1022 / 30.18 / 767
QFE:(hPa/inHg/mmHg)1001 / 29.55 / 751
Temperature-4
Dew Point-8
Visibility> 10000
Weather
Cloud CoverFEW (500);
Transition Height1200 m./4600 ft.
Transition LevelFL60
SQUAWK